createdAt,value
2022-11-20T00:04:31.101Z,17.63
2022-11-20T00:09:36.124Z,15.27
2022-11-20T00:14:43.795Z,17.80
2022-11-20T00:19:48.795Z,14.15
2022-11-20T00:24:53.799Z,16.75
2022-11-20T00:30:01.375Z,27.33
2022-11-20T00:35:06.663Z,20.08
2022-11-20T00:40:13.194Z,19.20
2022-11-20T00:45:20.836Z,19.85
2022-11-20T00:50:25.829Z,19.80
2022-11-20T00:55:30.897Z,18.27
2022-11-20T01:00:38.869Z,18.00
2022-11-20T01:05:44.030Z,15.05
2022-11-20T01:10:49.037Z,16.25
2022-11-20T01:15:56.668Z,15.98
2022-11-20T01:21:04.862Z,13.90
2022-11-20T01:26:20.637Z,12.93
2022-11-20T01:31:30.079Z,15.65
2022-11-20T01:36:37.119Z,10.67
2022-11-20T01:41:54.904Z,16.08
2022-11-20T01:47:04.852Z,14.27
2022-11-20T01:52:13.992Z,12.60
2022-11-20T01:57:20.006Z,16.40
2022-11-20T02:02:27.784Z,14.10
2022-11-20T02:07:33.281Z,13.68
2022-11-20T02:12:50.656Z,13.27
2022-11-20T02:17:58.306Z,14.45
2022-11-20T02:23:07.476Z,14.90
2022-11-20T02:28:15.240Z,13.80
2022-11-20T02:33:20.215Z,14.27
2022-11-20T02:38:25.187Z,12.68
2022-11-20T02:43:32.880Z,13.27
2022-11-20T02:48:38.130Z,13.68
2022-11-20T02:53:43.252Z,15.32
2022-11-20T02:58:50.886Z,16.35
2022-11-20T03:03:56.013Z,11.80
2022-11-20T03:09:01.089Z,12.10
2022-11-20T03:14:09.968Z,15.45
2022-11-20T03:19:15.480Z,12.13
2022-11-20T03:24:20.498Z,11.48
2022-11-20T03:29:29.753Z,14.55
2022-11-20T03:34:34.715Z,15.10
2022-11-20T03:39:39.709Z,12.10
2022-11-20T03:44:47.386Z,14.20
2022-11-20T03:49:52.387Z,12.10
2022-11-20T03:54:57.368Z,10.90
2022-11-20T04:00:05.109Z,11.13
2022-11-20T04:05:10.958Z,11.02
2022-11-20T04:10:15.973Z,12.77
2022-11-20T04:15:23.633Z,9.85
2022-11-20T04:20:28.668Z,9.20
2022-11-20T04:25:33.664Z,16.73
2022-11-20T04:30:41.337Z,20.73
2022-11-20T04:35:52.730Z,13.52
2022-11-20T04:41:01.133Z,11.63
2022-11-20T04:46:09.000Z,12.60
2022-11-20T04:51:14.085Z,14.65
2022-11-20T04:56:19.308Z,11.98
2022-11-20T05:01:28.244Z,10.77
2022-11-20T05:06:33.247Z,12.68
2022-11-20T05:11:38.359Z,17.15
2022-11-20T05:16:46.133Z,14.32
2022-11-20T05:21:51.178Z,14.80
2022-11-20T05:26:56.126Z,17.83
2022-11-20T05:32:03.699Z,20.63
2022-11-20T05:37:08.698Z,16.40
2022-11-20T05:42:26.003Z,19.00
2022-11-20T05:47:36.576Z,15.35
2022-11-20T05:52:41.613Z,21.77
2022-11-20T05:57:46.631Z,18.88
2022-11-20T06:02:54.296Z,20.83
2022-11-20T06:07:59.390Z,20.00
2022-11-20T06:13:04.447Z,18.67
2022-11-20T06:18:12.084Z,18.95
2022-11-20T06:23:17.805Z,23.25
2022-11-20T06:28:23.290Z,22.70
2022-11-20T06:33:30.889Z,26.88
2022-11-20T06:38:35.987Z,19.55
2022-11-20T06:43:41.008Z,22.73
2022-11-20T06:48:49.006Z,21.13
2022-11-20T06:53:56.553Z,22.90
2022-11-20T06:59:01.826Z,21.23
2022-11-20T07:04:09.820Z,28.17
2022-11-20T07:09:14.919Z,26.02
2022-11-20T07:14:20.241Z,23.40
2022-11-20T07:19:27.844Z,24.50
2022-11-20T07:24:32.829Z,25.60
2022-11-20T07:29:37.960Z,20.80
2022-11-20T07:34:45.584Z,21.83
2022-11-20T07:39:50.560Z,21.33
2022-11-20T07:44:55.701Z,30.98
2022-11-20T07:50:03.353Z,29.35
2022-11-20T07:55:09.556Z,37.40
2022-11-20T08:00:16.363Z,30.55
2022-11-20T08:05:24.064Z,21.73
2022-11-20T08:10:29.103Z,20.92
2022-11-20T08:15:34.236Z,29.15
2022-11-20T08:20:41.987Z,23.67
2022-11-20T08:25:47.011Z,23.88
2022-11-20T08:30:52.049Z,22.77
2022-11-20T08:36:02.955Z,25.67
2022-11-20T08:41:21.404Z,24.52
2022-11-20T08:46:27.161Z,25.77
2022-11-20T08:51:34.847Z,19.88
2022-11-20T08:56:40.388Z,20.20
2022-11-20T09:01:45.504Z,24.35
2022-11-20T09:06:56.890Z,20.80
2022-11-20T09:12:04.598Z,26.95
2022-11-20T09:17:14.611Z,18.10
2022-11-20T09:22:25.234Z,22.85
2022-11-20T09:27:30.359Z,17.23
2022-11-20T09:32:35.531Z,20.65
2022-11-20T09:37:43.452Z,22.38
2022-11-20T09:42:51.260Z,19.13
2022-11-20T09:48:10.829Z,17.48
2022-11-20T09:53:31.168Z,17.20
2022-11-20T09:58:41.255Z,19.63
2022-11-20T10:03:53.357Z,18.42
2022-11-20T10:09:09.687Z,18.25
2022-11-20T10:14:22.590Z,22.15
2022-11-20T10:19:38.673Z,17.58
2022-11-20T10:24:58.240Z,18.38
2022-11-20T10:30:05.610Z,17.20
2022-11-20T10:35:20.803Z,17.52
2022-11-20T10:40:33.292Z,15.10
2022-11-20T10:45:44.308Z,17.83
2022-11-20T10:50:58.298Z,18.15
2022-11-20T10:56:10.244Z,16.63
2022-11-20T11:01:19.261Z,16.15
2022-11-20T11:06:29.414Z,15.85
2022-11-20T11:11:38.003Z,16.50
2022-11-20T11:16:53.532Z,16.75
2022-11-20T11:21:59.565Z,16.27
2022-11-20T11:27:11.285Z,16.80
2022-11-20T11:32:23.405Z,16.08
2022-11-20T11:37:31.989Z,19.98
2022-11-20T11:42:46.178Z,20.38
2022-11-20T11:47:52.743Z,19.27
2022-11-20T11:53:12.570Z,20.95
2022-11-20T11:58:36.437Z,21.10
2022-11-20T12:03:42.997Z,20.70
2022-11-20T12:08:52.101Z,19.38
2022-11-20T12:14:07.235Z,18.73
2022-11-20T12:19:15.366Z,21.52
2022-11-20T12:24:47.919Z,17.42
2022-11-20T12:30:02.846Z,17.33
2022-11-20T12:35:29.859Z,19.92
2022-11-20T12:40:40.365Z,17.83
2022-11-20T12:45:58.844Z,18.63
2022-11-20T12:51:19.223Z,17.95
2022-11-20T12:56:32.991Z,16.75
2022-11-20T13:01:45.321Z,19.40
2022-11-20T13:06:50.910Z,20.00
2022-11-20T13:12:04.652Z,20.80
2022-11-20T13:17:16.927Z,19.30
2022-11-20T13:22:29.570Z,19.77
2022-11-20T13:27:38.697Z,18.83
2022-11-20T13:32:55.708Z,17.15
2022-11-20T13:38:09.977Z,22.27
2022-11-20T13:43:30.981Z,22.63
2022-11-20T13:48:43.470Z,18.70
2022-11-20T13:54:09.798Z,21.05
2022-11-20T13:59:22.117Z,16.73
2022-11-20T14:04:31.517Z,19.35
2022-11-20T14:09:37.716Z,22.23
2022-11-20T14:14:52.284Z,27.00
2022-11-20T14:20:03.996Z,18.20
2022-11-20T14:25:23.183Z,23.63
2022-11-20T14:30:30.180Z,19.40
2022-11-20T14:35:39.997Z,19.42
2022-11-20T14:40:45.013Z,17.52
2022-11-20T14:45:56.483Z,22.00
2022-11-20T14:51:04.139Z,25.23
2022-11-20T14:56:09.263Z,19.33
2022-11-20T15:01:17.280Z,23.17
2022-11-20T15:06:30.582Z,20.75
2022-11-20T15:11:37.517Z,17.23
2022-11-20T15:16:43.543Z,21.00
2022-11-20T15:21:51.145Z,20.63
2022-11-20T15:26:56.207Z,18.90
2022-11-20T15:32:01.259Z,18.20
2022-11-20T15:37:08.965Z,52.17
2022-11-20T15:42:13.954Z,19.52
2022-11-20T15:47:18.964Z,18.42
2022-11-20T15:52:28.500Z,21.80
2022-11-20T15:57:35.453Z,24.42
2022-11-20T16:02:40.524Z,22.73
2022-11-20T16:07:48.145Z,20.85
2022-11-20T16:13:05.756Z,22.05
2022-11-20T16:18:13.204Z,15.40
2022-11-20T16:23:21.404Z,19.15
2022-11-20T16:28:26.424Z,28.20
2022-11-20T16:33:32.007Z,17.95
2022-11-20T16:38:39.996Z,19.33
2022-11-20T16:43:49.662Z,18.25
2022-11-20T16:48:56.985Z,19.63
2022-11-20T16:54:05.100Z,17.85
2022-11-20T16:59:11.041Z,19.88
2022-11-20T17:04:16.261Z,14.88
2022-11-20T17:09:24.038Z,20.45
2022-11-20T17:14:29.374Z,19.83
2022-11-20T17:19:34.824Z,19.35
2022-11-20T17:24:42.649Z,18.25
2022-11-20T17:29:47.621Z,19.50
2022-11-20T17:34:56.538Z,20.75
2022-11-20T17:40:04.337Z,18.77
2022-11-20T17:45:10.277Z,18.63
2022-11-20T17:50:15.617Z,17.85
2022-11-20T17:55:24.670Z,17.35
2022-11-20T18:00:30.829Z,21.83
2022-11-20T18:05:35.831Z,24.95
2022-11-20T18:10:43.458Z,28.00
2022-11-20T18:15:48.927Z,32.67
2022-11-20T18:20:56.632Z,20.05
2022-11-20T18:26:05.951Z,21.38
2022-11-20T18:31:11.453Z,20.42
2022-11-20T18:36:17.341Z,22.65
2022-11-20T18:41:39.569Z,21.48
2022-11-20T18:46:44.661Z,21.27
2022-11-20T18:51:50.177Z,19.27
2022-11-20T18:56:57.903Z,26.45
2022-11-20T19:02:02.861Z,19.80
2022-11-20T19:07:17.090Z,20.63
2022-11-20T19:12:26.669Z,21.67
2022-11-20T19:17:31.920Z,18.40
2022-11-20T19:22:37.204Z,22.10
2022-11-20T19:27:45.154Z,19.38
2022-11-20T19:32:50.275Z,20.92
2022-11-20T19:37:55.346Z,22.45
2022-11-20T19:43:04.235Z,20.58
2022-11-20T19:48:12.444Z,21.73
2022-11-20T19:53:18.786Z,20.65
2022-11-20T19:58:28.069Z,22.00
2022-11-20T20:03:33.260Z,21.38
2022-11-20T20:08:38.495Z,22.05
2022-11-20T20:13:49.508Z,24.27
2022-11-20T20:18:58.136Z,32.28
2022-11-20T20:24:03.298Z,21.98
2022-11-20T20:29:11.000Z,23.33
2022-11-20T20:34:15.954Z,20.05
2022-11-20T20:39:21.443Z,23.80
2022-11-20T20:44:41.498Z,20.08
2022-11-20T20:49:46.556Z,23.37
2022-11-20T20:54:51.882Z,20.25
2022-11-20T20:59:59.663Z,22.75
2022-11-20T21:05:04.804Z,21.23
2022-11-20T21:10:10.296Z,27.33
2022-11-20T21:15:18.350Z,22.27
2022-11-20T21:20:35.670Z,20.40
2022-11-20T21:25:41.576Z,22.88
2022-11-20T21:30:49.525Z,20.23
2022-11-20T21:35:54.600Z,23.88
2022-11-20T21:41:00.768Z,21.50
2022-11-20T21:46:18.474Z,29.08
2022-11-20T21:51:25.160Z,24.77
2022-11-20T21:56:30.714Z,23.42
2022-11-20T22:01:38.577Z,22.90
2022-11-20T22:06:43.894Z,27.08
2022-11-20T22:11:48.961Z,23.40
2022-11-20T22:16:57.012Z,25.42
2022-11-20T22:22:01.989Z,28.33
2022-11-20T22:27:07.045Z,26.08
2022-11-20T22:32:14.601Z,27.95
2022-11-20T22:37:19.607Z,26.58
2022-11-20T22:42:24.561Z,26.13
2022-11-20T22:47:32.139Z,24.65
2022-11-20T22:52:37.125Z,27.80
2022-11-20T22:57:42.152Z,25.25
2022-11-20T23:02:49.934Z,26.35
2022-11-20T23:07:54.985Z,30.05
2022-11-20T23:12:59.977Z,23.98
2022-11-20T23:18:07.671Z,30.50
2022-11-20T23:23:12.687Z,28.35
2022-11-20T23:28:18.162Z,30.13
2022-11-20T23:33:25.981Z,27.10
2022-11-20T23:38:30.995Z,26.70
2022-11-20T23:43:36.728Z,26.20
2022-11-20T23:48:45.219Z,27.13
2022-11-20T23:53:50.537Z,24.25
2022-11-20T23:58:55.553Z,29.02
